sensor_id;sensor_type;location;lat;lon;timestamp;pressure;altitude;pressure_sealevel;temperature;humidity
11223;BME280;5668;52.012;8.724;2024-03-17T00:01:43;100956.50;;;8.88;84.39
11223;BME280;5668;52.012;8.724;2024-03-17T00:04:30;100966.13;;;8.86;85.12
11223;BME280;5668;52.012;8.724;2024-03-17T00:07:17;100956.69;;;8.85;85.61
11223;BME280;5668;52.012;8.724;2024-03-17T00:09:50;100965.19;;;8.87;85.49
11223;BME280;5668;52.012;8.724;2024-03-17T00:12:36;100957.41;;;8.87;85.87
11223;BME280;5668;52.012;8.724;2024-03-17T00:15:29;100964.38;;;8.87;85.69
11223;BME280;5668;52.012;8.724;2024-03-17T00:17:56;100967.97;;;8.84;85.22
11223;BME280;5668;52.012;8.724;2024-03-17T00:20:24;100968.78;;;8.85;84.93
11223;BME280;5668;52.012;8.724;2024-03-17T00:22:51;100967.88;;;8.86;85.09
11223;BME280;5668;52.012;8.724;2024-03-17T00:25:18;100959.28;;;8.85;85.17
11223;BME280;5668;52.012;8.724;2024-03-17T00:27:44;100954.22;;;8.82;85.40
11223;BME280;5668;52.012;8.724;2024-03-17T00:30:14;100961.16;;;8.82;84.80
11223;BME280;5668;52.012;8.724;2024-03-17T00:32:41;100957.91;;;8.78;85.23
11223;BME280;5668;52.012;8.724;2024-03-17T00:35:10;100960.66;;;8.75;85.26
11223;BME280;5668;52.012;8.724;2024-03-17T00:37:41;100962.41;;;8.75;84.59
11223;BME280;5668;52.012;8.724;2024-03-17T00:40:10;100958.31;;;8.71;85.26
11223;BME280;5668;52.012;8.724;2024-03-17T00:42:37;100951.53;;;8.68;85.16
11223;BME280;5668;52.012;8.724;2024-03-17T00:45:05;100960.22;;;8.67;85.09
11223;BME280;5668;52.012;8.724;2024-03-17T00:47:32;100959.38;;;8.67;85.43
11223;BME280;5668;52.012;8.724;2024-03-17T00:50:00;100955.22;;;8.64;84.91
11223;BME280;5668;52.012;8.724;2024-03-17T00:52:26;100956.13;;;8.63;85.22
11223;BME280;5668;52.012;8.724;2024-03-17T00:54:55;100955.34;;;8.61;85.59
11223;BME280;5668;52.012;8.724;2024-03-17T00:57:22;100956.34;;;8.59;84.81
11223;BME280;5668;52.012;8.724;2024-03-17T00:59:49;100952.00;;;8.59;85.88
11223;BME280;5668;52.012;8.724;2024-03-17T01:02:15;100952.16;;;8.56;85.41
11223;BME280;5668;52.012;8.724;2024-03-17T01:04:43;100942.78;;;8.53;84.48
11223;BME280;5668;52.012;8.724;2024-03-17T01:07:10;100941.13;;;8.52;84.70
11223;BME280;5668;52.012;8.724;2024-03-17T01:09:37;100936.06;;;8.49;84.91
11223;BME280;5668;52.012;8.724;2024-03-17T01:12:05;100936.19;;;8.48;85.20
11223;BME280;5668;52.012;8.724;2024-03-17T01:14:32;100934.50;;;8.47;84.94
11223;BME280;5668;52.012;8.724;2024-03-17T01:16:59;100930.22;;;8.46;85.16
11223;BME280;5668;52.012;8.724;2024-03-17T01:19:27;100926.03;;;8.43;85.55
11223;BME280;5668;52.012;8.724;2024-03-17T01:21:53;100932.22;;;8.41;85.19
11223;BME280;5668;52.012;8.724;2024-03-17T01:24:20;100928.81;;;8.40;85.80
11223;BME280;5668;52.012;8.724;2024-03-17T01:26:47;100928.94;;;8.37;85.46
11223;BME280;5668;52.012;8.724;2024-03-17T01:29:16;100927.25;;;8.36;85.53
11223;BME280;5668;52.012;8.724;2024-03-17T01:31:43;100929.19;;;8.33;85.55
11223;BME280;5668;52.012;8.724;2024-03-17T01:34:10;100930.13;;;8.30;85.47
11223;BME280;5668;52.012;8.724;2024-03-17T01:36:37;100924.13;;;8.30;85.92
11223;BME280;5668;52.012;8.724;2024-03-17T01:39:04;100930.22;;;8.29;84.86
11223;BME280;5668;52.012;8.724;2024-03-17T01:41:31;100924.28;;;8.27;84.93
11223;BME280;5668;52.012;8.724;2024-03-17T01:43:58;100926.13;;;8.25;86.00
11223;BME280;5668;52.012;8.724;2024-03-17T01:46:26;100916.66;;;8.24;85.60
11223;BME280;5668;52.012;8.724;2024-03-17T01:48:53;100923.66;;;8.22;85.37
11223;BME280;5668;52.012;8.724;2024-03-17T01:51:20;100915.13;;;8.20;85.69
11223;BME280;5668;52.012;8.724;2024-03-17T01:53:48;100923.00;;;8.18;85.06
11223;BME280;5668;52.012;8.724;2024-03-17T01:56:15;100911.81;;;8.18;86.05
11223;BME280;5668;52.012;8.724;2024-03-17T01:58:44;100914.53;;;8.14;85.14
11223;BME280;5668;52.012;8.724;2024-03-17T02:01:11;100916.28;;;8.14;85.75
11223;BME280;5668;52.012;8.724;2024-03-17T02:03:42;100910.34;;;8.12;85.80
11223;BME280;5668;52.012;8.724;2024-03-17T02:06:08;100913.03;;;8.10;85.56
11223;BME280;5668;52.012;8.724;2024-03-17T02:08:49;100907.91;;;8.09;85.98
11223;BME280;5668;52.012;8.724;2024-03-17T02:11:25;100907.16;;;8.07;85.48
11223;BME280;5668;52.012;8.724;2024-03-17T02:13:53;100907.38;;;8.02;86.08
11223;BME280;5668;52.012;8.724;2024-03-17T02:16:19;100903.91;;;8.03;85.97
11223;BME280;5668;52.012;8.724;2024-03-17T02:18:48;100901.59;;;7.97;85.45
11223;BME280;5668;52.012;8.724;2024-03-17T02:21:15;100899.38;;;7.90;84.97
11223;BME280;5668;52.012;8.724;2024-03-17T02:23:44;100897.88;;;7.86;85.80
11223;BME280;5668;52.012;8.724;2024-03-17T02:26:10;100890.25;;;7.83;85.74
11223;BME280;5668;52.012;8.724;2024-03-17T02:28:42;100890.34;;;7.81;86.32
11223;BME280;5668;52.012;8.724;2024-03-17T02:31:10;100897.47;;;7.76;85.78
11223;BME280;5668;52.012;8.724;2024-03-17T02:33:37;100895.97;;;7.72;85.34
11223;BME280;5668;52.012;8.724;2024-03-17T02:36:05;100895.25;;;7.68;86.22
11223;BME280;5668;52.012;8.724;2024-03-17T02:38:33;100899.75;;;7.65;85.59
11223;BME280;5668;52.012;8.724;2024-03-17T02:41:20;100900.78;;;7.61;85.56
11223;BME280;5668;52.012;8.724;2024-03-17T02:43:48;100901.63;;;7.61;85.75
11223;BME280;5668;52.012;8.724;2024-03-17T02:46:17;100910.16;;;7.63;86.16
11223;BME280;5668;52.012;8.724;2024-03-17T02:48:46;100909.09;;;7.67;86.43
11223;BME280;5668;52.012;8.724;2024-03-17T02:51:15;100909.03;;;7.69;86.14
11223;BME280;5668;52.012;8.724;2024-03-17T02:53:43;100908.25;;;7.67;86.05
11223;BME280;5668;52.012;8.724;2024-03-17T02:56:11;100906.50;;;7.67;86.78
11223;BME280;5668;52.012;8.724;2024-03-17T02:58:40;100896.09;;;7.69;85.86
11223;BME280;5668;52.012;8.724;2024-03-17T03:01:08;100896.09;;;7.69;86.43
11223;BME280;5668;52.012;8.724;2024-03-17T03:03:36;100896.09;;;7.69;87.05
11223;BME280;5668;52.012;8.724;2024-03-17T03:06:04;100896.25;;;7.66;86.36
11223;BME280;5668;52.012;8.724;2024-03-17T03:08:35;100900.66;;;7.64;86.11
11223;BME280;5668;52.012;8.724;2024-03-17T03:11:03;100899.88;;;7.62;86.25
11223;BME280;5668;52.012;8.724;2024-03-17T03:13:32;100894.88;;;7.59;86.70
11223;BME280;5668;52.012;8.724;2024-03-17T03:16:00;100897.06;;;7.49;86.69
11223;BME280;5668;52.012;8.724;2024-03-17T03:18:27;100895.44;;;7.47;86.56
11223;BME280;5668;52.012;8.724;2024-03-17T03:20:54;100902.16;;;7.51;86.26
11223;BME280;5668;52.012;8.724;2024-03-17T03:23:22;100892.72;;;7.50;86.65
11223;BME280;5668;52.012;8.724;2024-03-17T03:25:55;100897.84;;;7.51;86.69
11223;BME280;5668;52.012;8.724;2024-03-17T03:28:23;100893.50;;;7.52;87.35
11223;BME280;5668;52.012;8.724;2024-03-17T03:30:51;100892.56;;;7.53;86.35
11223;BME280;5668;52.012;8.724;2024-03-17T03:33:19;100889.97;;;7.53;86.51
11223;BME280;5668;52.012;8.724;2024-03-17T03:35:47;100895.16;;;7.53;87.00
11223;BME280;5668;52.012;8.724;2024-03-17T03:38:15;100887.50;;;7.51;86.89
11223;BME280;5668;52.012;8.724;2024-03-17T03:40:42;100890.91;;;7.52;87.35
11223;BME280;5668;52.012;8.724;2024-03-17T03:43:10;100887.50;;;7.51;87.12
11223;BME280;5668;52.012;8.724;2024-03-17T03:45:37;100886.66;;;7.51;87.35
11223;BME280;5668;52.012;8.724;2024-03-17T03:48:06;100889.66;;;7.42;86.13
11223;BME280;5668;52.012;8.724;2024-03-17T03:50:37;100896.09;;;7.33;86.03
11223;BME280;5668;52.012;8.724;2024-03-17T03:53:04;100896.03;;;7.34;86.48
11223;BME280;5668;52.012;8.724;2024-03-17T03:55:32;100895.03;;;7.37;87.18
11223;BME280;5668;52.012;8.724;2024-03-17T03:57:59;100896.72;;;7.38;87.02
11223;BME280;5668;52.012;8.724;2024-03-17T04:00:27;100902.13;;;7.33;86.41
11223;BME280;5668;52.012;8.724;2024-03-17T04:02:59;100902.19;;;7.32;87.36
11223;BME280;5668;52.012;8.724;2024-03-17T04:05:27;100894.38;;;7.33;86.70
11223;BME280;5668;52.012;8.724;2024-03-17T04:07:56;100904.69;;;7.33;87.41
11223;BME280;5668;52.012;8.724;2024-03-17T04:10:24;100910.72;;;7.34;87.20
11223;BME280;5668;52.012;8.724;2024-03-17T04:12:52;100907.28;;;7.33;87.44
11223;BME280;5668;52.012;8.724;2024-03-17T04:15:19;100901.22;;;7.34;86.51
11223;BME280;5668;52.012;8.724;2024-03-17T04:17:46;100905.63;;;7.32;87.64
11223;BME280;5668;52.012;8.724;2024-03-17T04:20:14;100902.19;;;7.32;87.52
11223;BME280;5668;52.012;8.724;2024-03-17T04:22:42;100903.94;;;7.31;87.45
11223;BME280;5668;52.012;8.724;2024-03-17T04:25:11;100901.34;;;7.31;86.72
11223;BME280;5668;52.012;8.724;2024-03-17T04:27:40;100900.66;;;7.28;87.61
11223;BME280;5668;52.012;8.724;2024-03-17T04:30:07;100902.41;;;7.27;87.39
11223;BME280;5668;52.012;8.724;2024-03-17T04:32:35;100908.50;;;7.26;87.90
11223;BME280;5668;52.012;8.724;2024-03-17T04:35:03;100900.72;;;7.26;87.40
11223;BME280;5668;52.012;8.724;2024-03-17T04:37:30;100910.22;;;7.26;87.25
11223;BME280;5668;52.012;8.724;2024-03-17T04:40:06;100901.63;;;7.25;87.73
11223;BME280;5668;52.012;8.724;2024-03-17T04:42:37;100898.16;;;7.26;87.71
11223;BME280;5668;52.012;8.724;2024-03-17T04:45:07;100899.06;;;7.25;87.28
11223;BME280;5668;52.012;8.724;2024-03-17T04:47:35;100903.31;;;7.26;87.68
11223;BME280;5668;52.012;8.724;2024-03-17T04:50:04;100907.66;;;7.26;87.21
11223;BME280;5668;52.012;8.724;2024-03-17T04:52:32;100909.41;;;7.25;87.95
11223;BME280;5668;52.012;8.724;2024-03-17T04:54:59;100912.09;;;7.22;87.65
11223;BME280;5668;52.012;8.724;2024-03-17T04:57:27;100916.38;;;7.23;87.40
11223;BME280;5668;52.012;8.724;2024-03-17T04:59:55;100913.78;;;7.23;87.60
11223;BME280;5668;52.012;8.724;2024-03-17T05:02:22;100907.88;;;7.21;87.87
11223;BME280;5668;52.012;8.724;2024-03-17T05:04:50;100914.69;;;7.22;86.96
11223;BME280;5668;52.012;8.724;2024-03-17T05:07:18;100925.97;;;7.21;87.64
11223;BME280;5668;52.012;8.724;2024-03-17T05:09:45;100915.69;;;7.20;88.06
11223;BME280;5668;52.012;8.724;2024-03-17T05:12:12;100918.34;;;7.18;87.92
11223;BME280;5668;52.012;8.724;2024-03-17T05:14:39;100926.09;;;7.18;87.36
11223;BME280;5668;52.012;8.724;2024-03-17T05:17:08;100926.09;;;7.18;87.16
11223;BME280;5668;52.012;8.724;2024-03-17T05:19:36;100917.56;;;7.16;87.56
11223;BME280;5668;52.012;8.724;2024-03-17T05:22:03;100933.06;;;7.16;87.14
11223;BME280;5668;52.012;8.724;2024-03-17T05:24:30;100931.38;;;7.15;87.72
11223;BME280;5668;52.012;8.724;2024-03-17T05:26:57;100928.06;;;7.13;87.13
11223;BME280;5668;52.012;8.724;2024-03-17T05:29:25;100927.13;;;7.14;87.55
11223;BME280;5668;52.012;8.724;2024-03-17T05:31:52;100928.06;;;7.13;87.38
11223;BME280;5668;52.012;8.724;2024-03-17T05:34:20;100928.19;;;7.10;87.17
11223;BME280;5668;52.012;8.724;2024-03-17T05:36:50;100925.59;;;7.10;87.92
11223;BME280;5668;52.012;8.724;2024-03-17T05:39:17;100928.19;;;7.10;87.33
11223;BME280;5668;52.012;8.724;2024-03-17T05:41:46;100929.94;;;7.10;88.47
11223;BME280;5668;52.012;8.724;2024-03-17T05:44:14;100924.81;;;7.08;88.15
11223;BME280;5668;52.012;8.724;2024-03-17T05:46:42;100930.09;;;7.07;87.89
11223;BME280;5668;52.012;8.724;2024-03-17T05:49:09;100934.41;;;7.06;88.00
11223;BME280;5668;52.012;8.724;2024-03-17T05:51:37;100929.31;;;7.05;88.46
11223;BME280;5668;52.012;8.724;2024-03-17T05:54:06;100921.63;;;7.03;88.05
11223;BME280;5668;52.012;8.724;2024-03-17T05:56:33;100926.00;;;7.01;87.66
11223;BME280;5668;52.012;8.724;2024-03-17T05:59:01;100924.22;;;7.03;88.00
11223;BME280;5668;52.012;8.724;2024-03-17T06:01:28;100921.75;;;7.00;87.73
11223;BME280;5668;52.012;8.724;2024-03-17T06:03:55;100918.25;;;7.01;88.15
11223;BME280;5668;52.012;8.724;2024-03-17T06:06:23;100916.59;;;7.00;88.48
11223;BME280;5668;52.012;8.724;2024-03-17T06:08:51;100916.88;;;6.94;88.43
11223;BME280;5668;52.012;8.724;2024-03-17T06:11:18;100916.03;;;6.93;88.14
11223;BME280;5668;52.012;8.724;2024-03-17T06:13:45;100910.13;;;6.91;88.22
11223;BME280;5668;52.012;8.724;2024-03-17T06:16:13;100905.00;;;6.90;88.28
11223;BME280;5668;52.012;8.724;2024-03-17T06:18:40;100899.91;;;6.88;87.96
11223;BME280;5668;52.012;8.724;2024-03-17T06:21:07;100910.31;;;6.87;88.09
11223;BME280;5668;52.012;8.724;2024-03-17T06:23:35;100912.09;;;6.85;88.67
11223;BME280;5668;52.012;8.724;2024-03-17T06:26:04;100907.09;;;6.82;88.73
11223;BME280;5668;52.012;8.724;2024-03-17T06:28:31;100902.72;;;6.84;89.32
11223;BME280;5668;52.012;8.724;2024-03-17T06:30:59;100902.63;;;6.85;89.02
11223;BME280;5668;52.012;8.724;2024-03-17T06:33:29;100898.44;;;6.83;89.33
11223;BME280;5668;52.012;8.724;2024-03-17T06:35:58;100890.59;;;6.84;89.34
11223;BME280;5668;52.012;8.724;2024-03-17T06:38:25;100899.97;;;6.87;89.38
11223;BME280;5668;52.012;8.724;2024-03-17T06:40:52;100905.13;;;6.87;90.17
11223;BME280;5668;52.012;8.724;2024-03-17T06:43:21;100912.81;;;6.88;90.35
11223;BME280;5668;52.012;8.724;2024-03-17T06:45:55;100911.19;;;6.86;89.45
11223;BME280;5668;52.012;8.724;2024-03-17T06:48:23;100907.66;;;6.88;90.56
11223;BME280;5668;52.012;8.724;2024-03-17T06:50:50;100907.53;;;6.91;90.43
11223;BME280;5668;52.012;8.724;2024-03-17T06:53:18;100910.78;;;6.95;90.61
11223;BME280;5668;52.012;8.724;2024-03-17T06:55:52;100908.94;;;6.98;91.72
11223;BME280;5668;52.012;8.724;2024-03-17T06:58:22;100905.28;;;7.03;91.48
11223;BME280;5668;52.012;8.724;2024-03-17T07:00:53;100899.28;;;7.02;92.27
11223;BME280;5668;52.012;8.724;2024-03-17T07:03:22;100908.78;;;7.02;92.09
11223;BME280;5668;52.012;8.724;2024-03-17T07:05:54;100906.06;;;7.05;92.60
11223;BME280;5668;52.012;8.724;2024-03-17T07:08:22;100909.47;;;7.05;93.06
11223;BME280;5668;52.012;8.724;2024-03-17T07:10:59;100909.31;;;7.08;93.01
11223;BME280;5668;52.012;8.724;2024-03-17T07:13:31;100911.00;;;7.09;92.75
11223;BME280;5668;52.012;8.724;2024-03-17T07:15:59;100922.72;;;7.16;93.58
11223;BME280;5668;52.012;8.724;2024-03-17T07:18:27;100914.84;;;7.19;94.30
11223;BME280;5668;52.012;8.724;2024-03-17T07:20:56;100913.78;;;7.23;93.70
11223;BME280;5668;52.012;8.724;2024-03-17T07:23:24;100908.56;;;7.25;95.02
11223;BME280;5668;52.012;8.724;2024-03-17T07:25:52;100909.25;;;7.28;94.68
11223;BME280;5668;52.012;8.724;2024-03-17T07:28:20;100898.75;;;7.31;95.19
11223;BME280;5668;52.012;8.724;2024-03-17T07:30:50;100895.19;;;7.34;95.36
11223;BME280;5668;52.012;8.724;2024-03-17T07:33:18;100897.72;;;7.35;95.96
11223;BME280;5668;52.012;8.724;2024-03-17T07:35:50;100895.88;;;7.37;95.72
11223;BME280;5668;52.012;8.724;2024-03-17T07:38:18;100899.03;;;7.44;95.97
11223;BME280;5668;52.012;8.724;2024-03-17T07:40:54;100892.66;;;7.51;96.35
11223;BME280;5668;52.012;8.724;2024-03-17T07:43:23;100892.38;;;7.57;96.15
11223;BME280;5668;52.012;8.724;2024-03-17T07:46:01;100884.25;;;7.65;96.73
11223;BME280;5668;52.012;8.724;2024-03-17T07:48:30;100887.44;;;7.70;96.85
11223;BME280;5668;52.012;8.724;2024-03-17T07:50:58;100885.44;;;7.75;97.28
11223;BME280;5668;52.012;8.724;2024-03-17T07:53:26;100880.72;;;7.83;97.76
11223;BME280;5668;52.012;8.724;2024-03-17T07:55:58;100881.19;;;7.91;97.70
11223;BME280;5668;52.012;8.724;2024-03-17T07:58:26;100884.41;;;7.96;97.55
11223;BME280;5668;52.012;8.724;2024-03-17T08:00:57;100874.66;;;8.01;97.89
11223;BME280;5668;52.012;8.724;2024-03-17T08:03:27;100879.53;;;8.07;97.24
11223;BME280;5668;52.012;8.724;2024-03-17T08:05:54;100874.03;;;8.13;97.89
11223;BME280;5668;52.012;8.724;2024-03-17T08:08:22;100879.66;;;8.22;97.45
11223;BME280;5668;52.012;8.724;2024-03-17T08:10:49;100880.91;;;8.32;97.53
11223;BME280;5668;52.012;8.724;2024-03-17T08:13:17;100884.69;;;8.42;97.10
11223;BME280;5668;52.012;8.724;2024-03-17T08:15:45;100882.53;;;8.50;96.69
11223;BME280;5668;52.012;8.724;2024-03-17T08:18:14;100882.97;;;8.58;97.22
11223;BME280;5668;52.012;8.724;2024-03-17T08:20:42;100887.84;;;8.64;97.15
11223;BME280;5668;52.012;8.724;2024-03-17T08:23:10;100885.66;;;8.72;96.59
11223;BME280;5668;52.012;8.724;2024-03-17T08:25:38;100887.78;;;8.81;96.72
11223;BME280;5668;52.012;8.724;2024-03-17T08:28:05;100886.53;;;8.88;96.86
11223;BME280;5668;52.012;8.724;2024-03-17T08:30:33;100880.84;;;8.98;96.70
11223;BME280;5668;52.012;8.724;2024-03-17T08:33:00;100881.34;;;9.04;96.60
11223;BME280;5668;52.012;8.724;2024-03-17T08:35:29;100881.69;;;9.14;95.94
11223;BME280;5668;52.012;8.724;2024-03-17T08:37:56;100876.75;;;9.25;96.05
11223;BME280;5668;52.012;8.724;2024-03-17T08:40:25;100884.00;;;9.34;95.56
11223;BME280;5668;52.012;8.724;2024-03-17T08:42:53;100882.59;;;9.44;95.77
11223;BME280;5668;52.012;8.724;2024-03-17T08:45:20;100887.16;;;9.55;95.66
11223;BME280;5668;52.012;8.724;2024-03-17T08:47:51;100883.06;;;9.66;95.44
11223;BME280;5668;52.012;8.724;2024-03-17T08:50:20;100880.66;;;9.78;95.23
11223;BME280;5668;52.012;8.724;2024-03-17T08:52:49;100880.91;;;9.89;95.06
11223;BME280;5668;52.012;8.724;2024-03-17T08:55:17;100877.78;;;9.98;94.71
11223;BME280;5668;52.012;8.724;2024-03-17T08:57:45;100872.97;;;10.06;94.47
11223;BME280;5668;52.012;8.724;2024-03-17T09:00:12;100870.75;;;10.14;94.24
11223;BME280;5668;52.012;8.724;2024-03-17T09:02:41;100873.66;;;10.24;94.00
11223;BME280;5668;52.012;8.724;2024-03-17T09:05:08;100868.75;;;10.33;93.65
11223;BME280;5668;52.012;8.724;2024-03-17T09:07:35;100862.94;;;10.44;92.98
11223;BME280;5668;52.012;8.724;2024-03-17T09:10:05;100877.59;;;10.59;92.13
11223;BME280;5668;52.012;8.724;2024-03-17T09:12:34;100871.47;;;10.74;91.09
11223;BME280;5668;52.012;8.724;2024-03-17T09:15:03;100879.88;;;10.92;88.96
11223;BME280;5668;52.012;8.724;2024-03-17T09:17:31;100878.09;;;11.07;87.86
11223;BME280;5668;52.012;8.724;2024-03-17T09:19:58;100882.53;;;11.19;87.30
11223;BME280;5668;52.012;8.724;2024-03-17T09:22:25;100885.72;;;11.37;86.44
11223;BME280;5668;52.012;8.724;2024-03-17T09:24:52;100883.38;;;11.46;83.79
11223;BME280;5668;52.012;8.724;2024-03-17T09:27:21;100877.50;;;11.70;83.12
11223;BME280;5668;52.012;8.724;2024-03-17T09:29:51;100873.28;;;11.81;82.17
11223;BME280;5668;52.012;8.724;2024-03-17T09:32:18;100871.56;;;11.94;81.58
11223;BME280;5668;52.012;8.724;2024-03-17T09:34:47;100877.19;;;12.14;81.32
11223;BME280;5668;52.012;8.724;2024-03-17T09:37:15;100875.22;;;12.30;79.72
11223;BME280;5668;52.012;8.724;2024-03-17T09:39:42;100870.94;;;12.41;79.35
11223;BME280;5668;52.012;8.724;2024-03-17T09:42:16;100860.28;;;12.57;78.70
11223;BME280;5668;52.012;8.724;2024-03-17T09:44:46;100866.53;;;12.67;77.77
11223;BME280;5668;52.012;8.724;2024-03-17T09:47:18;100868.28;;;12.79;76.75
11223;BME280;5668;52.012;8.724;2024-03-17T09:49:46;100871.72;;;12.93;76.36
11223;BME280;5668;52.012;8.724;2024-03-17T09:52:19;100872.50;;;13.06;75.64
11223;BME280;5668;52.012;8.724;2024-03-17T09:54:49;100870.72;;;13.19;75.20
11223;BME280;5668;52.012;8.724;2024-03-17T09:57:17;100873.16;;;13.33;74.24
11223;BME280;5668;52.012;8.724;2024-03-17T09:59:52;100867.47;;;13.39;73.20
11223;BME280;5668;52.012;8.724;2024-03-17T10:02:20;100870.72;;;13.43;72.23
11223;BME280;5668;52.012;8.724;2024-03-17T10:04:48;100862.78;;;13.44;72.36
11223;BME280;5668;52.012;8.724;2024-03-17T10:07:15;100869.88;;;13.42;70.44
11223;BME280;5668;52.012;8.724;2024-03-17T10:09:43;100866.34;;;13.43;69.46
11223;BME280;5668;52.012;8.724;2024-03-17T10:12:27;100871.84;;;13.51;69.32
11223;BME280;5668;52.012;8.724;2024-03-17T10:15:02;100864.69;;;13.53;68.60
11223;BME280;5668;52.012;8.724;2024-03-17T10:17:31;100852.25;;;13.57;68.80
11223;BME280;5668;52.012;8.724;2024-03-17T10:20:13;100853.81;;;13.60;67.35
11223;BME280;5668;52.012;8.724;2024-03-17T10:22:57;100851.91;;;13.62;66.75
11223;BME280;5668;52.012;8.724;2024-03-17T10:25:25;100851.91;;;13.62;67.08
11223;BME280;5668;52.012;8.724;2024-03-17T10:27:53;100849.91;;;13.65;66.83
11223;BME280;5668;52.012;8.724;2024-03-17T10:30:23;100851.59;;;13.66;65.74
11223;BME280;5668;52.012;8.724;2024-03-17T10:32:58;100844.44;;;13.68;66.12
11223;BME280;5668;52.012;8.724;2024-03-17T10:35:31;100842.47;;;13.72;66.29
11223;BME280;5668;52.012;8.724;2024-03-17T10:38:00;100829.88;;;13.77;65.94
11223;BME280;5668;52.012;8.724;2024-03-17T10:40:28;100825.84;;;13.84;65.86
11223;BME280;5668;52.012;8.724;2024-03-17T10:42:57;100829.09;;;13.87;65.03
11223;BME280;5668;52.012;8.724;2024-03-17T10:45:26;100822.66;;;13.91;63.07
11223;BME280;5668;52.012;8.724;2024-03-17T10:47:59;100827.81;;;14.04;63.58
11223;BME280;5668;52.012;8.724;2024-03-17T10:50:31;100829.84;;;14.23;63.59
11223;BME280;5668;52.012;8.724;2024-03-17T10:53:02;100829.88;;;14.45;64.05
11223;BME280;5668;52.012;8.724;2024-03-17T10:55:34;100830.00;;;14.55;62.36
11223;BME280;5668;52.012;8.724;2024-03-17T10:58:21;100834.75;;;14.72;61.59
11223;BME280;5668;52.012;8.724;2024-03-17T11:00:51;100826.38;;;14.89;59.72
11223;BME280;5668;52.012;8.724;2024-03-17T11:03:19;100829.72;;;15.02;60.07
11223;BME280;5668;52.012;8.724;2024-03-17T11:05:48;100831.78;;;15.20;60.73
11223;BME280;5668;52.012;8.724;2024-03-17T11:08:17;100837.72;;;15.33;58.85
11223;BME280;5668;52.012;8.724;2024-03-17T11:10:50;100834.91;;;15.45;58.09
11223;BME280;5668;52.012;8.724;2024-03-17T11:13:24;100840.47;;;15.63;58.49
11223;BME280;5668;52.012;8.724;2024-03-17T11:15:54;100844.44;;;15.78;58.61
11223;BME280;5668;52.012;8.724;2024-03-17T11:18:37;100833.50;;;15.94;57.40
11223;BME280;5668;52.012;8.724;2024-03-17T11:21:06;100834.50;;;16.03;56.32
11223;BME280;5668;52.012;8.724;2024-03-17T11:23:41;100838.56;;;16.07;55.07
11223;BME280;5668;52.012;8.724;2024-03-17T11:26:09;100839.00;;;16.12;55.21
11223;BME280;5668;52.012;8.724;2024-03-17T11:28:50;100828.94;;;16.17;54.39
11223;BME280;5668;52.012;8.724;2024-03-17T11:31:36;100826.50;;;16.25;53.83
11223;BME280;5668;52.012;8.724;2024-03-17T11:34:25;100811.88;;;16.32;54.19
11223;BME280;5668;52.012;8.724;2024-03-17T11:36:52;100807.94;;;16.38;51.92
11223;BME280;5668;52.012;8.724;2024-03-17T11:39:21;100811.69;;;16.45;52.31
11223;BME280;5668;52.012;8.724;2024-03-17T11:41:55;100815.84;;;16.57;53.91
11223;BME280;5668;52.012;8.724;2024-03-17T11:44:26;100812.34;;;16.68;52.05
11223;BME280;5668;52.012;8.724;2024-03-17T11:46:55;100810.41;;;16.79;51.99
11223;BME280;5668;52.012;8.724;2024-03-17T11:49:25;100811.00;;;16.92;52.38
11223;BME280;5668;52.012;8.724;2024-03-17T11:51:53;100808.38;;;17.02;50.76
11223;BME280;5668;52.012;8.724;2024-03-17T11:54:22;100801.31;;;16.93;50.52
11223;BME280;5668;52.012;8.724;2024-03-17T11:56:50;100798.84;;;17.01;50.26
11223;BME280;5668;52.012;8.724;2024-03-17T11:59:18;100800.25;;;17.05;49.15
11223;BME280;5668;52.012;8.724;2024-03-17T12:01:46;100798.03;;;17.10;50.31
11223;BME280;5668;52.012;8.724;2024-03-17T12:04:15;100795.97;;;17.14;49.81
11223;BME280;5668;52.012;8.724;2024-03-17T12:06:45;100797.09;;;17.21;48.96
11223;BME280;5668;52.012;8.724;2024-03-17T12:09:18;100797.75;;;17.23;48.74
11223;BME280;5668;52.012;8.724;2024-03-17T12:11:47;100785.19;;;17.17;48.03
11223;BME280;5668;52.012;8.724;2024-03-17T12:14:16;100779.50;;;17.02;47.75
11223;BME280;5668;52.012;8.724;2024-03-17T12:16:50;100779.78;;;16.99;48.14
11223;BME280;5668;52.012;8.724;2024-03-17T12:19:20;100777.72;;;17.12;50.19
11223;BME280;5668;52.012;8.724;2024-03-17T12:21:49;100773.72;;;17.27;49.19
11223;BME280;5668;52.012;8.724;2024-03-17T12:24:18;100769.44;;;17.36;48.56
11223;BME280;5668;52.012;8.724;2024-03-17T12:26:45;100766.25;;;17.32;47.50
11223;BME280;5668;52.012;8.724;2024-03-17T12:29:24;100762.91;;;17.30;46.56
11223;BME280;5668;52.012;8.724;2024-03-17T12:31:51;100775.91;;;17.22;46.97
11223;BME280;5668;52.012;8.724;2024-03-17T12:34:21;100770.09;;;17.09;45.67
11223;BME280;5668;52.012;8.724;2024-03-17T12:36:48;100776.19;;;17.00;45.51
11223;BME280;5668;52.012;8.724;2024-03-17T12:39:20;100761.81;;;17.04;46.88
11223;BME280;5668;52.012;8.724;2024-03-17T12:42:02;100763.63;;;17.13;47.31
11223;BME280;5668;52.012;8.724;2024-03-17T12:44:30;100762.78;;;17.22;47.71
11223;BME280;5668;52.012;8.724;2024-03-17T12:46:57;100759.47;;;17.20;47.21
11223;BME280;5668;52.012;8.724;2024-03-17T12:49:30;100759.34;;;17.12;46.14
11223;BME280;5668;52.012;8.724;2024-03-17T12:51:57;100764.84;;;16.99;44.73
11223;BME280;5668;52.012;8.724;2024-03-17T12:54:26;100765.81;;;16.89;45.92
11223;BME280;5668;52.012;8.724;2024-03-17T12:57:03;100763.59;;;16.75;46.15
11223;BME280;5668;52.012;8.724;2024-03-17T12:59:48;100763.16;;;16.70;46.66
11223;BME280;5668;52.012;8.724;2024-03-17T13:02:33;100772.00;;;16.69;46.26
11223;BME280;5668;52.012;8.724;2024-03-17T13:05:22;100768.69;;;16.67;46.05
11223;BME280;5668;52.012;8.724;2024-03-17T13:07:50;100768.94;;;16.63;45.41
11223;BME280;5668;52.012;8.724;2024-03-17T13:10:19;100766.06;;;16.67;44.43
11223;BME280;5668;52.012;8.724;2024-03-17T13:12:48;100763.13;;;16.60;41.85
11223;BME280;5668;52.012;8.724;2024-03-17T13:15:16;100754.59;;;16.68;44.02
11223;BME280;5668;52.012;8.724;2024-03-17T13:17:45;100762.88;;;16.73;44.04
11223;BME280;5668;52.012;8.724;2024-03-17T13:20:14;100749.75;;;16.73;43.30